createdAt,value
2024-04-15T06:28:39.995Z,23.30
2024-04-15T06:31:07.082Z,22.42
2024-04-15T06:55:06.001Z,29.03
2024-04-15T06:57:39.838Z,28.91
2024-04-15T07:00:06.967Z,33.98
2024-04-15T10:02:59.080Z,46.82
2024-04-15T10:18:36.143Z,43.96
2024-04-15T10:21:03.133Z,41.81
2024-04-15T10:23:30.055Z,40.43
2024-04-15T10:25:57.000Z,39.19
2024-04-15T10:28:24.056Z,40.81
2024-04-15T10:30:51.087Z,38.21
2024-04-15T10:33:18.174Z,41.33
2024-04-15T10:35:45.138Z,38.14
2024-04-15T10:38:12.152Z,38.23
2024-04-15T10:40:39.171Z,38.81
2024-04-15T10:43:06.149Z,37.90
2024-04-15T10:45:33.095Z,39.33
2024-04-15T10:48:00.151Z,38.60
2024-04-15T10:50:27.133Z,39.71
2024-04-15T10:52:54.060Z,39.66
2024-04-15T10:55:21.182Z,40.31
2024-04-15T10:57:48.212Z,37.39
2024-04-15T11:00:15.151Z,38.19
2024-04-15T11:02:42.096Z,37.77
2024-04-15T11:05:09.122Z,36.39
2024-04-15T11:07:36.126Z,37.25
2024-04-15T11:10:03.243Z,35.77
2024-04-15T11:12:30.218Z,38.91
2024-04-15T11:14:57.146Z,37.18
2024-04-15T11:17:24.069Z,36.63
2024-04-15T11:19:51.001Z,35.69
2024-04-15T11:22:21.099Z,36.07
2024-04-15T11:24:48.649Z,36.81
2024-04-15T11:27:15.575Z,37.86
2024-04-15T11:29:52.008Z,36.71
2024-04-15T11:32:25.693Z,37.61
2024-04-15T11:34:52.714Z,37.41
2024-04-15T11:37:20.874Z,37.03
2024-04-15T11:39:47.964Z,37.27
2024-04-15T11:42:15.006Z,35.85
2024-04-15T11:44:41.951Z,37.58
2024-04-15T11:47:10.354Z,37.65
2024-04-15T11:49:37.486Z,36.11
2024-04-15T11:52:04.486Z,36.26
2024-04-15T11:54:31.611Z,36.50
2024-04-15T11:56:58.584Z,37.05
2024-04-15T11:59:25.551Z,35.76
2024-04-15T12:01:52.581Z,36.39
2024-04-15T12:04:20.271Z,37.22
2024-04-15T12:06:47.577Z,37.66
2024-04-15T12:09:16.978Z,37.28
2024-04-15T12:11:44.007Z,37.78
2024-04-15T12:14:10.638Z,36.89
2024-04-15T12:16:37.526Z,37.38
2024-04-15T12:19:04.226Z,37.54
2024-04-15T12:21:32.455Z,37.68
2024-04-15T12:23:59.204Z,37.98
2024-04-15T12:26:25.892Z,36.34
2024-04-15T12:28:52.519Z,36.49
2024-04-15T12:31:19.238Z,38.79
2024-04-15T12:33:45.855Z,36.94
2024-04-15T12:36:12.472Z,38.68
2024-04-15T12:38:39.178Z,37.34
2024-04-15T12:41:05.786Z,36.90
2024-04-15T12:43:32.487Z,35.62
2024-04-15T12:45:59.221Z,36.38
2024-04-15T12:48:25.907Z,36.11
2024-04-15T12:50:52.666Z,35.19
2024-04-15T12:53:19.291Z,37.03
2024-04-15T12:55:46.030Z,36.51
2024-04-15T12:58:12.655Z,35.05
2024-04-15T13:00:39.321Z,33.69
2024-04-15T13:03:05.997Z,33.23
2024-04-15T13:05:34.717Z,33.92
2024-04-15T13:08:02.740Z,33.00
2024-04-15T13:10:29.455Z,33.03
2024-04-15T13:12:56.553Z,32.64
2024-04-15T13:15:23.566Z,34.06
2024-04-15T13:17:50.628Z,33.44
2024-04-15T13:20:17.857Z,33.97
2024-04-15T13:22:44.832Z,33.36
2024-04-15T13:25:11.891Z,35.07
2024-04-15T13:27:41.342Z,35.12
2024-04-15T13:30:08.952Z,32.68
2024-04-15T13:32:36.380Z,33.32
2024-04-15T13:35:03.643Z,34.05
2024-04-15T13:37:31.067Z,33.63
2024-04-15T13:39:58.157Z,33.57
2024-04-15T13:42:25.836Z,33.18
2024-04-15T13:44:52.958Z,31.96
2024-04-15T13:47:20.089Z,32.01
2024-04-15T13:49:47.125Z,33.53
2024-04-15T13:52:14.443Z,33.52
2024-04-15T13:54:41.646Z,33.26
2024-04-15T13:57:10.317Z,34.14
2024-04-15T19:46:39.502Z,41.36
2024-04-15T19:49:07.378Z,41.71
2024-04-15T19:51:39.503Z,42.16
2024-04-15T19:54:07.186Z,42.87
2024-04-15T19:56:33.984Z,43.08
2024-04-15T19:59:01.119Z,42.93
2024-04-15T20:01:28.446Z,42.61
2024-04-15T20:03:55.334Z,42.12
2024-04-15T20:06:22.341Z,41.74
2024-04-15T20:08:49.458Z,41.89
2024-04-15T20:11:16.978Z,41.92
2024-04-15T20:13:44.437Z,41.94
2024-04-15T20:16:11.802Z,41.45
2024-04-15T20:18:47.458Z,41.68
2024-04-15T20:21:14.301Z,41.80
2024-04-15T20:23:40.894Z,42.00
2024-04-15T20:26:07.573Z,42.15
2024-04-15T20:28:34.301Z,41.42
2024-04-15T20:31:01.213Z,41.37
2024-04-15T20:36:28.348Z,40.92
2024-04-15T20:41:50.808Z,40.89
2024-04-15T20:44:21.266Z,41.52
2024-04-15T20:52:45.188Z,41.20
2024-04-15T20:55:39.033Z,40.77
2024-04-15T21:12:55.120Z,39.80
2024-04-15T21:37:31.480Z,41.72
2024-04-15T21:39:58.554Z,41.68
2024-04-15T21:42:25.617Z,40.92
2024-04-15T21:44:52.751Z,41.53
2024-04-15T21:47:19.801Z,41.63
2024-04-15T21:49:46.795Z,42.05
2024-04-15T21:52:16.531Z,42.18
2024-04-15T21:54:43.583Z,42.54
2024-04-15T21:57:10.656Z,42.01
2024-04-15T21:59:37.647Z,42.00
2024-04-15T22:02:04.645Z,42.29
2024-04-15T22:04:40.710Z,42.56
2024-04-15T22:07:15.612Z,42.60
2024-04-15T22:09:42.741Z,42.99
2024-04-15T22:12:09.796Z,42.61
2024-04-15T22:14:36.757Z,42.69
2024-04-15T22:17:03.778Z,43.07
2024-04-15T22:19:30.871Z,43.17
2024-04-15T22:21:58.170Z,43.75
2024-04-15T22:24:25.486Z,43.62
2024-04-15T22:26:52.241Z,43.97
2024-04-15T22:29:19.196Z,43.35
2024-04-15T22:31:46.062Z,43.52
2024-04-15T22:34:12.877Z,44.12
2024-04-15T22:36:39.578Z,44.15
2024-04-15T22:39:06.580Z,44.50
2024-04-15T22:41:33.342Z,44.75
2024-04-15T22:44:00.150Z,44.73
2024-04-15T22:46:26.906Z,43.78
2024-04-15T22:48:53.668Z,43.75
2024-04-15T22:51:20.430Z,43.90
2024-04-15T22:53:47.271Z,43.88
2024-04-15T22:56:14.114Z,43.91
2024-04-15T22:58:40.933Z,43.81
2024-04-15T23:01:07.678Z,44.23
2024-04-15T23:03:34.465Z,44.15
2024-04-15T23:06:01.280Z,44.42
2024-04-15T23:08:28.048Z,44.70
2024-04-15T23:10:55.109Z,44.78
2024-04-15T23:13:21.812Z,45.12
2024-04-15T23:15:48.455Z,46.06
2024-04-15T23:18:15.283Z,45.78
2024-04-15T23:20:41.992Z,45.89
2024-04-15T23:23:08.774Z,47.14
2024-04-15T23:25:36.100Z,47.49
2024-04-15T23:28:03.401Z,47.53
2024-04-15T23:30:30.543Z,47.74
2024-04-15T23:32:57.837Z,47.87
2024-04-15T23:35:25.082Z,47.63
2024-04-15T23:37:52.504Z,47.12
2024-04-15T23:40:19.740Z,46.39
2024-04-15T23:42:47.023Z,46.75
2024-04-15T23:45:14.286Z,46.50
2024-04-15T23:47:41.565Z,47.10
2024-04-15T23:50:08.717Z,46.65
2024-04-15T23:52:36.086Z,46.52
2024-04-15T23:55:03.426Z,45.88
2024-04-15T23:57:30.825Z,45.58
2024-04-15T23:59:58.095Z,45.45
